createdAt,value
2019-02-09T00:00:31.936Z,59.74
2019-02-09T00:03:33.877Z,59.69
2019-02-09T00:06:35.953Z,59.52
2019-02-09T00:09:37.834Z,59.31
2019-02-09T00:12:39.772Z,59.08
2019-02-09T00:15:41.628Z,58.92
2019-02-09T00:18:43.610Z,58.87
2019-02-09T00:21:45.486Z,58.97
2019-02-09T00:24:47.461Z,59.05
2019-02-09T00:27:49.340Z,58.87
2019-02-09T00:30:51.346Z,58.75
2019-02-09T00:33:53.242Z,58.81
2019-02-09T00:36:55.140Z,58.67
2019-02-09T00:39:57.023Z,58.66
2019-02-09T00:42:59.030Z,58.76
2019-02-09T00:46:01.380Z,58.86
2019-02-09T00:49:03.354Z,58.92
2019-02-09T00:52:06.421Z,59.14
2019-02-09T00:55:11.440Z,59.34
2019-02-09T00:58:13.342Z,59.10
2019-02-09T01:01:15.327Z,59.13
2019-02-09T01:04:17.266Z,59.16
2019-02-09T01:07:19.274Z,58.95
2019-02-09T01:10:21.413Z,58.84
2019-02-09T01:13:23.329Z,58.58
2019-02-09T01:16:26.313Z,58.56
2019-02-09T01:19:28.253Z,58.54
2019-02-09T01:22:30.305Z,58.37
2019-02-09T01:25:32.159Z,58.16
2019-02-09T01:28:34.294Z,57.96
2019-02-09T01:31:36.292Z,57.70
2019-02-09T01:34:38.238Z,57.51
2019-02-09T01:37:40.214Z,57.27
2019-02-09T01:40:42.148Z,57.27
2019-02-09T01:43:44.137Z,57.14
2019-02-09T01:46:46.585Z,57.10
2019-02-09T01:49:48.507Z,56.93
2019-02-09T01:52:50.369Z,56.75
2019-02-09T01:55:52.270Z,56.83
2019-02-09T01:58:54.210Z,56.98
2019-02-09T02:01:56.161Z,56.79
2019-02-09T02:04:58.157Z,56.66
2019-02-09T02:08:00.197Z,56.52
2019-02-09T02:11:02.294Z,56.32
2019-02-09T02:14:04.439Z,56.25
2019-02-09T02:17:06.682Z,56.11
2019-02-09T02:20:18.189Z,56.04
2019-02-09T02:23:20.140Z,56.05
2019-02-09T02:26:22.119Z,56.14
2019-02-09T02:29:24.024Z,56.17
2019-02-09T02:32:26.073Z,56.21
2019-02-09T02:35:28.029Z,56.28
2019-02-09T02:38:29.974Z,56.45
2019-02-09T02:41:31.916Z,56.90
2019-02-09T02:44:33.906Z,57.26
2019-02-09T02:47:37.644Z,57.79
2019-02-09T02:50:39.599Z,58.02
2019-02-09T02:53:41.634Z,58.10
2019-02-09T02:56:43.556Z,58.16
2019-02-09T02:59:45.480Z,57.81
2019-02-09T03:02:47.537Z,57.45
2019-02-09T03:05:49.435Z,57.48
2019-02-09T03:08:51.450Z,57.90
2019-02-09T03:11:53.356Z,58.24
2019-02-09T03:14:55.375Z,58.36
2019-02-09T03:17:57.765Z,58.31
2019-02-09T03:20:59.683Z,57.94
2019-02-09T03:24:01.579Z,57.38
2019-02-09T03:27:03.483Z,57.17
2019-02-09T03:30:08.966Z,57.08
2019-02-09T03:33:10.918Z,57.29
2019-02-09T03:36:12.752Z,57.76
2019-02-09T03:39:14.743Z,57.91
2019-02-09T03:42:16.666Z,57.88
2019-02-09T03:45:21.410Z,57.85
2019-02-09T03:48:24.766Z,57.58
2019-02-09T03:51:26.689Z,57.19
2019-02-09T03:54:28.546Z,56.71
2019-02-09T03:57:30.477Z,56.34
2019-02-09T04:00:32.647Z,55.90
2019-02-09T04:03:34.670Z,55.84
2019-02-09T04:06:36.615Z,55.63
2019-02-09T04:09:38.595Z,56.02
2019-02-09T04:12:40.701Z,56.28
2019-02-09T04:15:42.861Z,57.19
2019-02-09T04:18:44.779Z,58.11
2019-02-09T04:21:46.700Z,58.92
2019-02-09T04:24:48.702Z,58.96
2019-02-09T04:27:50.815Z,59.17
2019-02-09T04:30:52.771Z,59.33
2019-02-09T04:33:54.742Z,59.29
2019-02-09T04:36:56.658Z,58.53
2019-02-09T04:39:58.551Z,58.03
2019-02-09T04:43:01.152Z,57.83
2019-02-09T04:46:03.226Z,57.84
2019-02-09T04:49:05.137Z,58.12
2019-02-09T04:52:07.638Z,58.66
2019-02-09T04:55:15.271Z,58.63
2019-02-09T04:58:17.222Z,58.83
2019-02-09T05:01:19.211Z,59.09
2019-02-09T05:04:21.207Z,59.30
2019-02-09T05:07:23.131Z,59.36
2019-02-09T05:10:25.594Z,59.59
2019-02-09T05:13:27.586Z,59.35
2019-02-09T05:16:29.560Z,58.60
2019-02-09T05:19:31.464Z,57.96
2019-02-09T05:22:33.415Z,57.40
2019-02-09T05:25:35.275Z,56.91
2019-02-09T05:28:37.198Z,56.75
2019-02-09T05:31:39.157Z,56.62
2019-02-09T05:34:41.125Z,56.61
2019-02-09T05:37:43.080Z,56.42
2019-02-09T05:40:45.167Z,56.10
2019-02-09T05:43:47.053Z,55.94
2019-02-09T05:46:48.959Z,55.80
2019-02-09T05:49:50.914Z,56.56
2019-02-09T05:52:52.830Z,57.34
2019-02-09T05:55:54.824Z,57.55
2019-02-09T05:58:56.861Z,57.14
2019-02-09T06:01:58.820Z,56.53
2019-02-09T06:05:00.724Z,56.12
2019-02-09T06:08:03.585Z,55.98
2019-02-09T06:11:05.647Z,55.85
2019-02-09T06:14:07.558Z,55.77
2019-02-09T06:17:09.513Z,55.73
2019-02-09T06:20:14.848Z,55.62
2019-02-09T06:23:16.787Z,55.28
2019-02-09T06:26:18.753Z,54.96
2019-02-09T06:29:20.681Z,54.50
2019-02-09T06:32:22.534Z,54.04
2019-02-09T06:35:24.911Z,53.70
2019-02-09T06:38:26.873Z,53.91
2019-02-09T06:41:29.039Z,53.91
2019-02-09T06:44:30.894Z,53.64
2019-02-09T06:47:32.773Z,53.46
2019-02-09T06:50:34.696Z,53.32
2019-02-09T06:53:36.604Z,53.51
2019-02-09T06:56:38.502Z,53.34
2019-02-09T06:59:40.472Z,53.22
2019-02-09T07:02:42.333Z,52.97
2019-02-09T07:05:44.356Z,52.81
2019-02-09T07:08:46.304Z,52.50
2019-02-09T07:11:48.421Z,52.37
2019-02-09T07:14:50.350Z,51.88
2019-02-09T07:17:52.243Z,51.45
2019-02-09T07:20:54.184Z,50.79
2019-02-09T07:23:56.068Z,49.78
2019-02-09T07:26:58.042Z,49.35
2019-02-09T07:29:59.961Z,48.80
2019-02-09T07:33:02.590Z,47.68
2019-02-09T07:36:04.803Z,45.65
2019-02-09T07:39:07.895Z,43.19
2019-02-09T07:42:09.823Z,43.56
2019-02-09T07:45:18.271Z,44.85
2019-02-09T07:48:20.216Z,45.63
2019-02-09T07:51:22.179Z,46.33
2019-02-09T07:54:24.104Z,46.62
2019-02-09T07:57:26.059Z,46.76
2019-02-09T08:00:30.651Z,47.20
2019-02-09T08:03:32.606Z,47.50
2019-02-09T08:06:34.510Z,47.84
2019-02-09T08:09:36.642Z,48.13
2019-02-09T08:12:38.693Z,48.14
2019-02-09T08:15:40.639Z,48.17
2019-02-09T08:18:42.544Z,47.90
2019-02-09T08:21:44.592Z,48.00
2019-02-09T08:24:46.520Z,48.26
2019-02-09T08:27:49.208Z,48.29
2019-02-09T08:30:51.302Z,48.34
2019-02-09T08:33:53.269Z,48.29
2019-02-09T08:36:55.156Z,47.73
2019-02-09T08:39:58.144Z,47.50
2019-02-09T08:43:00.154Z,47.49
2019-02-09T08:46:02.197Z,47.67
2019-02-09T08:49:05.533Z,47.92
2019-02-09T08:52:07.571Z,47.79
2019-02-09T08:55:09.458Z,47.82
2019-02-09T08:58:11.411Z,47.72
2019-02-09T09:01:13.471Z,47.42
2019-02-09T09:04:15.438Z,47.53
2019-02-09T09:07:17.341Z,47.58
2019-02-09T09:10:28.028Z,47.11
2019-02-09T09:13:30.008Z,47.03
2019-02-09T09:16:31.953Z,47.51
2019-02-09T09:19:33.875Z,48.10
2019-02-09T09:22:35.787Z,48.22
2019-02-09T09:25:37.649Z,48.40
2019-02-09T09:28:39.605Z,48.49
2019-02-09T09:31:41.494Z,48.55
2019-02-09T09:34:43.378Z,48.91
2019-02-09T09:37:45.256Z,49.16
2019-02-09T09:40:47.260Z,49.10
2019-02-09T09:43:49.172Z,49.20
2019-02-09T09:46:51.177Z,49.38
2019-02-09T09:49:53.149Z,49.34
2019-02-09T09:52:55.042Z,49.38
2019-02-09T09:55:56.977Z,49.36
2019-02-09T09:58:58.937Z,49.43
2019-02-09T10:02:02.175Z,49.13
2019-02-09T10:05:06.954Z,48.91
2019-02-09T10:08:08.955Z,48.89
2019-02-09T10:11:10.940Z,48.86
2019-02-09T10:14:12.940Z,49.05
2019-02-09T10:17:15.230Z,49.23
2019-02-09T10:20:19.118Z,49.56
2019-02-09T10:23:21.043Z,49.86
2019-02-09T10:26:22.947Z,50.03
2019-02-09T10:29:24.868Z,49.79
2019-02-09T10:32:26.818Z,49.33
2019-02-09T10:35:28.976Z,49.10
2019-02-09T10:38:30.902Z,49.07
2019-02-09T10:41:32.860Z,49.43
2019-02-09T10:44:34.820Z,49.81
2019-02-09T10:47:37.435Z,49.77
2019-02-09T10:50:45.656Z,49.74
2019-02-09T10:53:47.609Z,49.80
2019-02-09T10:56:49.535Z,49.67
2019-02-09T10:59:51.516Z,48.96
2019-02-09T11:02:53.441Z,48.40
2019-02-09T11:05:55.486Z,47.61
2019-02-09T11:08:57.376Z,46.95
2019-02-09T11:11:59.444Z,46.75
2019-02-09T11:15:01.472Z,47.34
2019-02-09T11:18:05.054Z,47.81
2019-02-09T11:21:06.954Z,48.50
2019-02-09T11:24:08.872Z,48.68
2019-02-09T11:27:11.307Z,48.47
2019-02-09T11:30:22.582Z,48.54
2019-02-09T11:33:24.677Z,48.82
2019-02-09T11:36:26.565Z,49.23
2019-02-09T11:39:28.463Z,49.39
2019-02-09T11:42:30.426Z,49.53
2019-02-09T11:45:35.171Z,49.46
2019-02-09T11:48:37.704Z,49.38
2019-02-09T11:51:39.724Z,49.75
2019-02-09T11:54:41.655Z,49.86
2019-02-09T11:57:43.633Z,49.92
2019-02-09T12:00:48.717Z,50.01
2019-02-09T12:03:50.623Z,50.04
2019-02-09T12:06:52.575Z,49.95
2019-02-09T12:09:54.466Z,50.16
2019-02-09T12:12:56.616Z,49.74
2019-02-09T12:15:58.721Z,49.27
2019-02-09T12:19:00.680Z,48.94
2019-02-09T12:22:03.207Z,48.70
2019-02-09T12:25:08.771Z,48.72
2019-02-09T12:28:12.409Z,48.49
2019-02-09T12:31:14.348Z,48.55
2019-02-09T12:34:16.278Z,48.73
2019-02-09T12:37:18.193Z,48.83
2019-02-09T12:40:26.189Z,49.02
2019-02-09T12:43:28.349Z,48.91
2019-02-09T12:46:30.445Z,49.10
2019-02-09T12:49:33.033Z,49.11
2019-02-09T12:52:34.952Z,49.02
2019-02-09T12:55:36.825Z,49.08
2019-02-09T12:58:38.745Z,49.19
2019-02-09T13:01:40.631Z,49.00
2019-02-09T13:04:42.555Z,48.99
2019-02-09T13:07:44.656Z,48.97
2019-02-09T13:10:46.590Z,49.25
2019-02-09T13:13:48.553Z,49.32
2019-02-09T13:16:50.637Z,49.12
2019-02-09T13:19:52.592Z,48.93
2019-02-09T13:22:55.217Z,48.69
2019-02-09T13:25:57.143Z,48.73
2019-02-09T13:28:59.088Z,48.36
2019-02-09T13:32:01.069Z,48.01
2019-02-09T13:35:04.946Z,48.06
2019-02-09T13:38:07.081Z,47.95
2019-02-09T13:41:09.202Z,47.97
2019-02-09T13:44:11.270Z,47.54
2019-02-09T13:47:13.251Z,47.67
2019-02-09T13:50:25.040Z,47.62
2019-02-09T13:53:28.402Z,47.05
2019-02-09T13:56:30.352Z,47.20
2019-02-09T13:59:32.248Z,47.15
2019-02-09T14:02:34.230Z,47.37
2019-02-09T14:05:36.241Z,47.67
2019-02-09T14:08:38.200Z,48.02
2019-02-09T14:11:40.053Z,48.06
2019-02-09T14:14:42.058Z,48.46
2019-02-09T14:17:44.038Z,48.90
2019-02-09T14:20:45.992Z,49.03
2019-02-09T14:23:47.888Z,49.28
2019-02-09T14:26:49.883Z,49.42
2019-02-09T14:29:51.811Z,49.54
2019-02-09T14:32:54.141Z,49.82
2019-02-09T14:35:55.999Z,50.13
2019-02-09T14:38:57.935Z,50.21
2019-02-09T14:41:59.865Z,50.22
2019-02-09T14:45:02.003Z,50.24
2019-02-09T14:48:03.981Z,50.29
2019-02-09T14:51:05.910Z,50.41
2019-02-09T14:54:07.912Z,50.53
2019-02-09T14:57:09.838Z,50.92
2019-02-09T15:00:17.689Z,51.03
2019-02-09T15:03:25.969Z,51.00
2019-02-09T15:06:23.595Z,51.19
2019-02-09T15:09:25.555Z,51.37
2019-02-09T15:12:27.482Z,51.30
2019-02-09T15:15:35.908Z,51.35
2019-02-09T15:18:37.890Z,51.35
2019-02-09T15:21:39.824Z,51.53
2019-02-09T15:24:41.755Z,51.63
2019-02-09T15:27:43.667Z,51.81
2019-02-09T15:30:46.655Z,51.92
2019-02-09T15:33:48.632Z,52.02
2019-02-09T15:36:50.541Z,52.19
2019-02-09T15:39:52.467Z,52.36
2019-02-09T15:42:54.350Z,52.48
2019-02-09T15:45:56.292Z,52.81
2019-02-09T15:48:58.206Z,53.09
2019-02-09T15:52:00.140Z,53.48
2019-02-09T15:55:04.693Z,53.52
2019-02-09T15:58:06.662Z,53.63
2019-02-09T16:01:08.545Z,53.87
2019-02-09T16:04:17.696Z,54.03
2019-02-09T16:07:16.021Z,54.17
2019-02-09T16:10:20.505Z,54.11
2019-02-09T16:13:22.413Z,54.22
2019-02-09T16:16:24.366Z,54.24
2019-02-09T16:19:26.389Z,54.53
2019-02-09T16:22:28.324Z,54.70
2019-02-09T16:25:30.467Z,54.93
2019-02-09T16:28:32.330Z,55.29
2019-02-09T16:31:35.976Z,55.26
2019-02-09T16:34:38.118Z,55.25
2019-02-09T16:37:40.045Z,55.39
2019-02-09T16:40:41.911Z,55.37
2019-02-09T16:43:43.820Z,55.42
2019-02-09T16:46:45.810Z,55.52
2019-02-09T16:49:49.547Z,55.58
2019-02-09T16:52:52.774Z,55.61
2019-02-09T16:55:55.094Z,55.61
2019-02-09T16:58:57.060Z,55.44
2019-02-09T17:01:59.102Z,55.46
2019-02-09T17:05:01.033Z,55.47
2019-02-09T17:08:05.287Z,55.38
2019-02-09T17:11:07.831Z,55.23
2019-02-09T17:14:09.816Z,55.20
2019-02-09T17:17:11.775Z,55.18
2019-02-09T17:20:14.700Z,54.93
2019-02-09T17:23:16.596Z,54.76
2019-02-09T17:26:19.822Z,54.75
2019-02-09T17:29:21.860Z,54.82
2019-02-09T17:32:23.858Z,54.74
2019-02-09T17:35:26.998Z,54.55
2019-02-09T17:38:31.098Z,54.58
2019-02-09T17:41:34.906Z,54.57
2019-02-09T17:44:38.987Z,54.49
2019-02-09T17:47:41.000Z,54.58
2019-02-09T17:50:42.920Z,54.57
2019-02-09T17:53:44.960Z,54.75
2019-02-09T17:56:46.933Z,54.89
2019-02-09T17:59:48.935Z,54.99
2019-02-09T18:02:50.788Z,55.14
2019-02-09T18:05:52.792Z,55.19
2019-02-09T18:08:55.873Z,55.28
2019-02-09T18:11:57.842Z,55.34
2019-02-09T18:15:01.606Z,55.33
2019-02-09T18:18:04.581Z,55.28
2019-02-09T18:21:08.352Z,55.20
2019-02-09T18:24:10.282Z,55.19
2019-02-09T18:27:12.158Z,55.17
2019-02-09T18:30:26.221Z,55.22
2019-02-09T18:33:31.044Z,55.15
2019-02-09T18:36:33.033Z,55.13
2019-02-09T18:39:34.885Z,55.24
2019-02-09T18:42:36.879Z,55.18
2019-02-09T18:45:39.128Z,55.15
2019-02-09T18:48:41.470Z,55.23
2019-02-09T18:51:43.393Z,55.10
2019-02-09T18:54:45.350Z,54.76
2019-02-09T18:57:48.703Z,54.75
2019-02-09T19:00:50.842Z,54.89
2019-02-09T19:03:53.163Z,54.93
2019-02-09T19:06:55.058Z,54.83
2019-02-09T19:09:58.165Z,54.77
2019-02-09T19:13:00.152Z,54.76
2019-02-09T19:16:02.033Z,54.84
2019-02-09T19:19:05.122Z,54.96
2019-02-09T19:22:07.205Z,55.23
2019-02-09T19:25:13.085Z,55.28
2019-02-09T19:28:15.119Z,55.11
2019-02-09T19:31:23.116Z,54.97
2019-02-09T19:34:25.046Z,54.78
2019-02-09T19:37:26.953Z,54.71
2019-02-09T19:40:28.949Z,54.57
2019-02-09T19:43:33.928Z,54.62
2019-02-09T19:46:37.404Z,54.80
2019-02-09T19:49:39.724Z,54.95
2019-02-09T19:52:42.752Z,55.21
2019-02-09T19:55:44.671Z,55.48
2019-02-09T19:58:46.924Z,55.70
2019-02-09T20:01:49.258Z,55.73
2019-02-09T20:04:51.639Z,55.53
2019-02-09T20:07:55.549Z,55.65
2019-02-09T20:10:57.677Z,55.63
2019-02-09T20:13:59.622Z,55.50
2019-02-09T20:17:01.996Z,55.39
2019-02-09T20:20:09.758Z,55.23
2019-02-09T20:23:12.429Z,55.18
2019-02-09T20:26:16.139Z,55.16
2019-02-09T20:29:18.168Z,55.26
2019-02-09T20:32:20.412Z,55.33
2019-02-09T20:35:27.870Z,55.50
2019-02-09T20:38:28.108Z,55.65
2019-02-09T20:41:31.557Z,55.67
2019-02-09T20:44:35.121Z,55.61
2019-02-09T20:47:39.381Z,55.66
2019-02-09T20:50:42.699Z,55.56
2019-02-09T20:53:44.659Z,55.47
2019-02-09T20:56:46.578Z,55.39
2019-02-09T20:59:48.841Z,55.35
2019-02-09T21:02:51.454Z,55.34
2019-02-09T21:05:54.919Z,55.30
2019-02-09T21:08:58.083Z,55.32
2019-02-09T21:12:00.044Z,55.40
2019-02-09T21:15:01.955Z,55.62
2019-02-09T21:18:06.363Z,55.65
2019-02-09T21:21:08.311Z,55.60
2019-02-09T21:24:10.833Z,55.48
2019-02-09T21:27:14.258Z,55.45
2019-02-09T21:30:20.822Z,55.50
2019-02-09T21:33:22.863Z,55.51
2019-02-09T21:36:25.207Z,55.74
2019-02-09T21:39:33.892Z,56.01
2019-02-09T21:42:33.502Z,56.25
2019-02-09T21:45:44.582Z,56.34
2019-02-09T21:48:41.122Z,56.38
2019-02-09T21:51:43.414Z,56.62
2019-02-09T21:54:45.371Z,56.63
2019-02-09T21:57:49.167Z,56.79
2019-02-09T22:00:55.674Z,56.97
2019-02-09T22:03:58.959Z,57.11
2019-02-09T22:07:00.908Z,57.16
2019-02-09T22:10:06.507Z,57.31
2019-02-09T22:13:08.441Z,57.28
2019-02-09T22:16:11.483Z,57.28
2019-02-09T22:19:13.444Z,57.29
2019-02-09T22:22:15.422Z,57.36
2019-02-09T22:25:25.711Z,57.34
2019-02-09T22:28:27.644Z,57.39
2019-02-09T22:31:29.570Z,57.42
2019-02-09T22:34:31.894Z,57.64
2019-02-09T22:37:33.926Z,57.58
2019-02-09T22:40:40.463Z,57.56
2019-02-09T22:43:42.370Z,57.60
2019-02-09T22:46:44.345Z,57.51
2019-02-09T22:49:46.246Z,57.58
2019-02-09T22:52:48.327Z,57.53
2019-02-09T22:55:50.189Z,57.60
2019-02-09T22:58:52.101Z,57.47
2019-02-09T23:01:54.067Z,57.66
2019-02-09T23:04:56.294Z,57.72
2019-02-09T23:07:58.242Z,57.90
2019-02-09T23:11:00.186Z,58.08
2019-02-09T23:14:02.112Z,58.17
2019-02-09T23:17:03.988Z,58.29
2019-02-09T23:20:07.418Z,58.31
2019-02-09T23:23:09.392Z,58.22
2019-02-09T23:26:12.254Z,58.11
2019-02-09T23:29:14.136Z,58.04
2019-02-09T23:32:16.052Z,58.08
2019-02-09T23:35:17.938Z,58.09
2019-02-09T23:38:19.936Z,58.11
2019-02-09T23:41:21.877Z,58.09
2019-02-09T23:44:23.799Z,58.04
2019-02-09T23:47:25.751Z,58.18
2019-02-09T23:50:27.743Z,58.07
2019-02-09T23:53:29.729Z,58.12
2019-02-09T23:56:31.783Z,58.27
2019-02-09T23:59:33.638Z,58.36
